ENEV/EVE METAR and TAF weather

Enter ICAO airport designator
Station Type Date Time Source
ENEV METAR 2020/04/05 15:20 UTC NOAA

ENEV 051520Z 21006KT 180V250 9999 VCSH SCT038 SCT055 M01/M08 Q1023 RMK WIND 1400FT 24018KT


Station Type Date Time Source
ENEV Decoded METAR 2020/04/05 15:20 UTC NOAA

Evenes, Norway (ENEV) 68-31N 016-41E 26M
Apr 05, 2020 - 11:20 AM EDT / 2020.04.05 1520 UTC
Wind: from the SSW (210 degrees) at 7 MPH (6 KT) (direction variable):0
Visibility: greater than 7 mile(s):0
Sky conditions: partly cloudy
Weather: showers in the vicinity
Temperature: 30 F (-1 C)
Windchill: 23 F (-5 C):1
Dew Point: 17 F (-8 C)
Relative Humidity: 58%
Pressure (altimeter): 30.21 in. Hg (1023 hPa)
ob: ENEV 051520Z 21006KT 180V250 9999 VCSH SCT038 SCT055 M01/M08 Q1023 RMK WIND 1400FT 24018KT
cycle: 15

Station Type Date Time Source
ENEV TAF 2010/02/05 07:50 UTC NOAA

METAR ENEV 050750Z 14007KT 9999 FEW040 SCT055 M04/M09 Q1019

Example: see airport list